sensor_id;sensor_type;location;lat;lon;timestamp;P1;durP1;ratioP1;P2;durP2;ratioP2
14078;SDS011;7115;50.150;8.568;2024-03-08T00:02:18;20.77;;;13.30;;
14078;SDS011;7115;50.150;8.568;2024-03-08T00:04:45;22.77;;;12.90;;
14078;SDS011;7115;50.150;8.568;2024-03-08T00:07:12;23.43;;;12.20;;
14078;SDS011;7115;50.150;8.568;2024-03-08T00:09:39;19.30;;;12.30;;
14078;SDS011;7115;50.150;8.568;2024-03-08T00:12:07;19.37;;;12.47;;
14078;SDS011;7115;50.150;8.568;2024-03-08T00:14:35;20.80;;;13.23;;
14078;SDS011;7115;50.150;8.568;2024-03-08T00:17:04;21.57;;;12.90;;
14078;SDS011;7115;50.150;8.568;2024-03-08T00:19:32;18.93;;;12.37;;
14078;SDS011;7115;50.150;8.568;2024-03-08T00:21:59;19.30;;;12.83;;
14078;SDS011;7115;50.150;8.568;2024-03-08T00:24:26;22.43;;;12.77;;
14078;SDS011;7115;50.150;8.568;2024-03-08T00:26:55;19.73;;;12.40;;
14078;SDS011;7115;50.150;8.568;2024-03-08T00:29:22;21.50;;;12.30;;
14078;SDS011;7115;50.150;8.568;2024-03-08T00:31:49;25.97;;;13.30;;
14078;SDS011;7115;50.150;8.568;2024-03-08T00:34:16;22.03;;;12.47;;
14078;SDS011;7115;50.150;8.568;2024-03-08T00:36:44;20.47;;;12.63;;
14078;SDS011;7115;50.150;8.568;2024-03-08T00:39:11;22.00;;;13.40;;
14078;SDS011;7115;50.150;8.568;2024-03-08T00:41:39;21.70;;;12.70;;
14078;SDS011;7115;50.150;8.568;2024-03-08T00:44:06;20.67;;;13.17;;
14078;SDS011;7115;50.150;8.568;2024-03-08T00:46:33;20.30;;;11.97;;
14078;SDS011;7115;50.150;8.568;2024-03-08T00:49:00;21.47;;;12.83;;
14078;SDS011;7115;50.150;8.568;2024-03-08T00:51:27;21.87;;;13.03;;
14078;SDS011;7115;50.150;8.568;2024-03-08T00:53:56;25.83;;;13.13;;
14078;SDS011;7115;50.150;8.568;2024-03-08T00:56:23;23.77;;;12.43;;
14078;SDS011;7115;50.150;8.568;2024-03-08T00:58:51;19.53;;;13.00;;
14078;SDS011;7115;50.150;8.568;2024-03-08T01:01:18;20.37;;;12.70;;
14078;SDS011;7115;50.150;8.568;2024-03-08T01:03:45;23.13;;;13.57;;
14078;SDS011;7115;50.150;8.568;2024-03-08T01:06:12;21.43;;;13.17;;
14078;SDS011;7115;50.150;8.568;2024-03-08T01:08:40;20.23;;;11.67;;
14078;SDS011;7115;50.150;8.568;2024-03-08T01:11:09;22.03;;;13.30;;
14078;SDS011;7115;50.150;8.568;2024-03-08T01:13:38;23.87;;;12.80;;
14078;SDS011;7115;50.150;8.568;2024-03-08T01:16:06;23.57;;;12.70;;
14078;SDS011;7115;50.150;8.568;2024-03-08T01:18:33;19.43;;;12.73;;
14078;SDS011;7115;50.150;8.568;2024-03-08T01:21:00;18.53;;;12.63;;
14078;SDS011;7115;50.150;8.568;2024-03-08T01:23:27;18.50;;;12.03;;
14078;SDS011;7115;50.150;8.568;2024-03-08T01:25:55;20.40;;;12.70;;
14078;SDS011;7115;50.150;8.568;2024-03-08T01:28:26;23.13;;;13.40;;
14078;SDS011;7115;50.150;8.568;2024-03-08T01:30:53;20.60;;;13.23;;
14078;SDS011;7115;50.150;8.568;2024-03-08T01:33:24;18.97;;;12.47;;
14078;SDS011;7115;50.150;8.568;2024-03-08T01:35:52;21.27;;;13.00;;
14078;SDS011;7115;50.150;8.568;2024-03-08T01:38:19;19.60;;;12.30;;
14078;SDS011;7115;50.150;8.568;2024-03-08T01:40:49;19.90;;;12.97;;
14078;SDS011;7115;50.150;8.568;2024-03-08T01:43:18;23.73;;;13.30;;
14078;SDS011;7115;50.150;8.568;2024-03-08T01:45:47;18.07;;;12.80;;
14078;SDS011;7115;50.150;8.568;2024-03-08T01:48:14;25.13;;;13.10;;
14078;SDS011;7115;50.150;8.568;2024-03-08T01:50:44;23.90;;;13.03;;
14078;SDS011;7115;50.150;8.568;2024-03-08T01:53:11;22.13;;;12.97;;
14078;SDS011;7115;50.150;8.568;2024-03-08T01:55:41;21.67;;;12.80;;
14078;SDS011;7115;50.150;8.568;2024-03-08T01:58:10;19.47;;;11.83;;
14078;SDS011;7115;50.150;8.568;2024-03-08T02:00:38;20.27;;;13.17;;
14078;SDS011;7115;50.150;8.568;2024-03-08T02:03:09;22.47;;;13.20;;
14078;SDS011;7115;50.150;8.568;2024-03-08T02:05:37;24.70;;;12.87;;
14078;SDS011;7115;50.150;8.568;2024-03-08T02:08:06;20.03;;;12.87;;
14078;SDS011;7115;50.150;8.568;2024-03-08T02:10:34;22.13;;;13.33;;
14078;SDS011;7115;50.150;8.568;2024-03-08T02:13:01;19.50;;;12.60;;
14078;SDS011;7115;50.150;8.568;2024-03-08T02:18:18;20.60;;;13.67;;
14078;SDS011;7115;50.150;8.568;2024-03-08T02:20:47;23.27;;;13.97;;
14078;SDS011;7115;50.150;8.568;2024-03-08T02:23:15;21.77;;;13.00;;
14078;SDS011;7115;50.150;8.568;2024-03-08T02:25:43;23.60;;;14.07;;
14078;SDS011;7115;50.150;8.568;2024-03-08T02:28:10;26.87;;;14.73;;
14078;SDS011;7115;50.150;8.568;2024-03-08T02:30:38;21.17;;;13.30;;
14078;SDS011;7115;50.150;8.568;2024-03-08T02:33:05;21.70;;;13.70;;
14078;SDS011;7115;50.150;8.568;2024-03-08T02:35:33;19.80;;;12.63;;
14078;SDS011;7115;50.150;8.568;2024-03-08T02:38:01;22.97;;;13.97;;
14078;SDS011;7115;50.150;8.568;2024-03-08T02:40:30;22.87;;;13.60;;
14078;SDS011;7115;50.150;8.568;2024-03-08T02:42:57;23.43;;;13.80;;
14078;SDS011;7115;50.150;8.568;2024-03-08T02:45:24;24.07;;;14.33;;
14078;SDS011;7115;50.150;8.568;2024-03-08T02:47:51;22.17;;;13.80;;
14078;SDS011;7115;50.150;8.568;2024-03-08T02:50:18;22.73;;;13.50;;
14078;SDS011;7115;50.150;8.568;2024-03-08T02:52:45;20.70;;;14.57;;
14078;SDS011;7115;50.150;8.568;2024-03-08T02:55:14;22.27;;;14.17;;
14078;SDS011;7115;50.150;8.568;2024-03-08T02:57:43;25.53;;;14.10;;
14078;SDS011;7115;50.150;8.568;2024-03-08T03:00:13;23.13;;;14.07;;
14078;SDS011;7115;50.150;8.568;2024-03-08T03:02:42;20.73;;;13.30;;
14078;SDS011;7115;50.150;8.568;2024-03-08T03:05:09;19.30;;;13.17;;
14078;SDS011;7115;50.150;8.568;2024-03-08T03:07:37;23.43;;;14.43;;
14078;SDS011;7115;50.150;8.568;2024-03-08T03:10:05;22.50;;;13.67;;
14078;SDS011;7115;50.150;8.568;2024-03-08T03:12:34;26.33;;;15.60;;
14078;SDS011;7115;50.150;8.568;2024-03-08T03:15:01;24.00;;;13.67;;
14078;SDS011;7115;50.150;8.568;2024-03-08T03:17:29;23.17;;;13.80;;
14078;SDS011;7115;50.150;8.568;2024-03-08T03:19:56;24.27;;;14.60;;
14078;SDS011;7115;50.150;8.568;2024-03-08T03:22:23;24.73;;;14.77;;
14078;SDS011;7115;50.150;8.568;2024-03-08T03:24:51;26.67;;;15.23;;
14078;SDS011;7115;50.150;8.568;2024-03-08T03:27:19;26.13;;;13.60;;
14078;SDS011;7115;50.150;8.568;2024-03-08T03:29:48;25.13;;;15.00;;
14078;SDS011;7115;50.150;8.568;2024-03-08T03:32:16;22.93;;;14.67;;
14078;SDS011;7115;50.150;8.568;2024-03-08T03:34:44;25.47;;;14.20;;
14078;SDS011;7115;50.150;8.568;2024-03-08T03:37:11;24.40;;;14.83;;
14078;SDS011;7115;50.150;8.568;2024-03-08T03:39:38;24.67;;;14.03;;
14078;SDS011;7115;50.150;8.568;2024-03-08T03:42:15;26.20;;;14.00;;
14078;SDS011;7115;50.150;8.568;2024-03-08T03:44:44;26.23;;;15.10;;
14078;SDS011;7115;50.150;8.568;2024-03-08T03:47:12;23.93;;;14.43;;
14078;SDS011;7115;50.150;8.568;2024-03-08T03:49:40;28.07;;;15.10;;
14078;SDS011;7115;50.150;8.568;2024-03-08T03:52:07;25.33;;;15.17;;
14078;SDS011;7115;50.150;8.568;2024-03-08T03:54:34;25.13;;;14.80;;
14078;SDS011;7115;50.150;8.568;2024-03-08T03:57:01;26.13;;;15.27;;
14078;SDS011;7115;50.150;8.568;2024-03-08T03:59:29;23.80;;;15.03;;
14078;SDS011;7115;50.150;8.568;2024-03-08T04:01:56;27.43;;;17.47;;
14078;SDS011;7115;50.150;8.568;2024-03-08T04:04:25;22.47;;;14.23;;
14078;SDS011;7115;50.150;8.568;2024-03-08T04:06:51;24.53;;;15.60;;
14078;SDS011;7115;50.150;8.568;2024-03-08T04:09:18;24.57;;;15.10;;
14078;SDS011;7115;50.150;8.568;2024-03-08T04:11:46;26.47;;;16.07;;
14078;SDS011;7115;50.150;8.568;2024-03-08T04:14:13;26.43;;;15.93;;
14078;SDS011;7115;50.150;8.568;2024-03-08T04:16:40;26.43;;;15.93;;
14078;SDS011;7115;50.150;8.568;2024-03-08T04:19:06;25.63;;;14.57;;
14078;SDS011;7115;50.150;8.568;2024-03-08T04:21:36;27.50;;;14.97;;
14078;SDS011;7115;50.150;8.568;2024-03-08T04:24:03;25.37;;;15.63;;
14078;SDS011;7115;50.150;8.568;2024-03-08T04:26:30;27.23;;;16.20;;
14078;SDS011;7115;50.150;8.568;2024-03-08T04:28:57;26.20;;;15.83;;
14078;SDS011;7115;50.150;8.568;2024-03-08T04:31:24;25.70;;;15.43;;
14078;SDS011;7115;50.150;8.568;2024-03-08T04:33:53;27.60;;;15.90;;
14078;SDS011;7115;50.150;8.568;2024-03-08T04:36:20;29.37;;;16.23;;
14078;SDS011;7115;50.150;8.568;2024-03-08T04:38:49;26.97;;;15.53;;
14078;SDS011;7115;50.150;8.568;2024-03-08T04:41:17;25.17;;;15.20;;
14078;SDS011;7115;50.150;8.568;2024-03-08T04:43:44;28.80;;;15.73;;
14078;SDS011;7115;50.150;8.568;2024-03-08T04:46:11;27.97;;;15.77;;
14078;SDS011;7115;50.150;8.568;2024-03-08T04:48:38;27.83;;;16.10;;
14078;SDS011;7115;50.150;8.568;2024-03-08T04:51:05;30.17;;;15.70;;
14078;SDS011;7115;50.150;8.568;2024-03-08T04:53:32;25.10;;;15.27;;
14078;SDS011;7115;50.150;8.568;2024-03-08T04:56:02;25.33;;;15.63;;
14078;SDS011;7115;50.150;8.568;2024-03-08T04:58:32;27.67;;;16.27;;
14078;SDS011;7115;50.150;8.568;2024-03-08T05:01:00;25.97;;;15.63;;
14078;SDS011;7115;50.150;8.568;2024-03-08T05:03:28;28.57;;;16.93;;
14078;SDS011;7115;50.150;8.568;2024-03-08T05:05:56;28.17;;;15.50;;
14078;SDS011;7115;50.150;8.568;2024-03-08T05:08:23;27.07;;;14.80;;
14078;SDS011;7115;50.150;8.568;2024-03-08T05:10:50;25.00;;;14.40;;
14078;SDS011;7115;50.150;8.568;2024-03-08T05:13:18;28.23;;;16.37;;
14078;SDS011;7115;50.150;8.568;2024-03-08T05:15:47;26.77;;;15.60;;
14078;SDS011;7115;50.150;8.568;2024-03-08T05:18:16;27.63;;;15.87;;
14078;SDS011;7115;50.150;8.568;2024-03-08T05:20:43;28.37;;;16.30;;
14078;SDS011;7115;50.150;8.568;2024-03-08T05:23:10;27.10;;;15.90;;
14078;SDS011;7115;50.150;8.568;2024-03-08T05:25:37;27.13;;;15.07;;
14078;SDS011;7115;50.150;8.568;2024-03-08T05:28:04;26.63;;;14.83;;
14078;SDS011;7115;50.150;8.568;2024-03-08T05:30:33;26.30;;;16.23;;
14078;SDS011;7115;50.150;8.568;2024-03-08T05:32:59;29.13;;;15.93;;
14078;SDS011;7115;50.150;8.568;2024-03-08T05:35:27;29.20;;;16.37;;
14078;SDS011;7115;50.150;8.568;2024-03-08T05:37:54;25.83;;;15.70;;
14078;SDS011;7115;50.150;8.568;2024-03-08T05:40:21;33.27;;;15.60;;
14078;SDS011;7115;50.150;8.568;2024-03-08T05:42:48;27.30;;;16.23;;
14078;SDS011;7115;50.150;8.568;2024-03-08T05:45:15;28.80;;;15.77;;
14078;SDS011;7115;50.150;8.568;2024-03-08T05:47:44;25.20;;;15.07;;
14078;SDS011;7115;50.150;8.568;2024-03-08T05:50:11;24.70;;;15.77;;
14078;SDS011;7115;50.150;8.568;2024-03-08T05:52:38;29.50;;;15.47;;
14078;SDS011;7115;50.150;8.568;2024-03-08T05:55:05;29.97;;;16.93;;
14078;SDS011;7115;50.150;8.568;2024-03-08T05:57:34;26.77;;;15.47;;
14078;SDS011;7115;50.150;8.568;2024-03-08T06:00:04;30.37;;;16.60;;
14078;SDS011;7115;50.150;8.568;2024-03-08T06:02:32;27.93;;;16.77;;
14078;SDS011;7115;50.150;8.568;2024-03-08T06:05:00;29.97;;;17.07;;
14078;SDS011;7115;50.150;8.568;2024-03-08T06:07:28;28.57;;;16.03;;
14078;SDS011;7115;50.150;8.568;2024-03-08T06:09:56;28.40;;;17.20;;
14078;SDS011;7115;50.150;8.568;2024-03-08T06:12:23;28.43;;;16.03;;
14078;SDS011;7115;50.150;8.568;2024-03-08T06:14:55;31.70;;;16.40;;
14078;SDS011;7115;50.150;8.568;2024-03-08T06:17:22;31.43;;;16.63;;
14078;SDS011;7115;50.150;8.568;2024-03-08T06:19:52;32.30;;;17.40;;
14078;SDS011;7115;50.150;8.568;2024-03-08T06:22:22;31.60;;;17.23;;
14078;SDS011;7115;50.150;8.568;2024-03-08T06:24:48;30.00;;;16.87;;
14078;SDS011;7115;50.150;8.568;2024-03-08T06:27:17;30.70;;;17.00;;
14078;SDS011;7115;50.150;8.568;2024-03-08T06:29:44;27.03;;;15.73;;
14078;SDS011;7115;50.150;8.568;2024-03-08T06:32:11;30.07;;;17.33;;
14078;SDS011;7115;50.150;8.568;2024-03-08T06:34:38;37.97;;;20.77;;
14078;SDS011;7115;50.150;8.568;2024-03-08T06:37:05;27.20;;;16.53;;
14078;SDS011;7115;50.150;8.568;2024-03-08T06:39:33;28.07;;;15.73;;
14078;SDS011;7115;50.150;8.568;2024-03-08T06:42:02;26.07;;;16.03;;
14078;SDS011;7115;50.150;8.568;2024-03-08T06:44:31;24.37;;;14.67;;
14078;SDS011;7115;50.150;8.568;2024-03-08T06:46:59;24.63;;;14.73;;
14078;SDS011;7115;50.150;8.568;2024-03-08T06:49:26;25.13;;;15.70;;
14078;SDS011;7115;50.150;8.568;2024-03-08T06:51:53;25.23;;;14.80;;
14078;SDS011;7115;50.150;8.568;2024-03-08T06:54:20;26.23;;;14.70;;
14078;SDS011;7115;50.150;8.568;2024-03-08T06:56:49;24.57;;;14.73;;
14078;SDS011;7115;50.150;8.568;2024-03-08T06:59:16;24.47;;;13.87;;
14078;SDS011;7115;50.150;8.568;2024-03-08T07:01:44;23.07;;;14.50;;
14078;SDS011;7115;50.150;8.568;2024-03-08T07:04:11;25.77;;;15.57;;
14078;SDS011;7115;50.150;8.568;2024-03-08T07:06:38;22.60;;;15.23;;
14078;SDS011;7115;50.150;8.568;2024-03-08T07:09:07;24.23;;;15.90;;
14078;SDS011;7115;50.150;8.568;2024-03-08T07:11:34;24.50;;;15.53;;
14078;SDS011;7115;50.150;8.568;2024-03-08T07:14:02;25.10;;;15.70;;
14078;SDS011;7115;50.150;8.568;2024-03-08T07:16:32;26.30;;;17.60;;
14078;SDS011;7115;50.150;8.568;2024-03-08T07:19:00;26.47;;;15.07;;
14078;SDS011;7115;50.150;8.568;2024-03-08T07:21:27;23.83;;;14.63;;
14078;SDS011;7115;50.150;8.568;2024-03-08T07:23:55;21.57;;;14.10;;
14078;SDS011;7115;50.150;8.568;2024-03-08T07:26:28;21.77;;;14.03;;
14078;SDS011;7115;50.150;8.568;2024-03-08T07:28:56;21.33;;;13.50;;
14078;SDS011;7115;50.150;8.568;2024-03-08T07:31:26;24.43;;;15.17;;
14078;SDS011;7115;50.150;8.568;2024-03-08T07:34:10;23.17;;;15.10;;
14078;SDS011;7115;50.150;8.568;2024-03-08T07:36:39;21.63;;;14.80;;
14078;SDS011;7115;50.150;8.568;2024-03-08T07:39:06;21.33;;;13.93;;
14078;SDS011;7115;50.150;8.568;2024-03-08T07:41:38;22.50;;;14.70;;
14078;SDS011;7115;50.150;8.568;2024-03-08T07:44:06;22.20;;;14.83;;
14078;SDS011;7115;50.150;8.568;2024-03-08T07:46:35;20.83;;;14.33;;
14078;SDS011;7115;50.150;8.568;2024-03-08T07:49:03;19.93;;;13.53;;
14078;SDS011;7115;50.150;8.568;2024-03-08T07:51:30;21.87;;;14.90;;
14078;SDS011;7115;50.150;8.568;2024-03-08T07:53:57;24.63;;;14.57;;
14078;SDS011;7115;50.150;8.568;2024-03-08T07:56:24;19.73;;;13.87;;
14078;SDS011;7115;50.150;8.568;2024-03-08T07:58:51;21.97;;;13.73;;
14078;SDS011;7115;50.150;8.568;2024-03-08T08:01:19;21.00;;;13.90;;
14078;SDS011;7115;50.150;8.568;2024-03-08T08:03:48;22.33;;;15.00;;
14078;SDS011;7115;50.150;8.568;2024-03-08T08:06:15;24.60;;;16.30;;
14078;SDS011;7115;50.150;8.568;2024-03-08T08:08:42;23.03;;;14.87;;
14078;SDS011;7115;50.150;8.568;2024-03-08T08:11:10;21.63;;;14.60;;
14078;SDS011;7115;50.150;8.568;2024-03-08T08:13:43;21.87;;;15.03;;
14078;SDS011;7115;50.150;8.568;2024-03-08T08:16:10;19.30;;;14.40;;
14078;SDS011;7115;50.150;8.568;2024-03-08T08:18:37;19.70;;;14.87;;
14078;SDS011;7115;50.150;8.568;2024-03-08T08:21:06;19.47;;;14.43;;
14078;SDS011;7115;50.150;8.568;2024-03-08T08:23:33;18.07;;;13.73;;
14078;SDS011;7115;50.150;8.568;2024-03-08T08:26:00;19.67;;;15.07;;
14078;SDS011;7115;50.150;8.568;2024-03-08T08:28:31;19.93;;;13.37;;
14078;SDS011;7115;50.150;8.568;2024-03-08T08:30:58;23.27;;;15.90;;
14078;SDS011;7115;50.150;8.568;2024-03-08T08:33:26;22.03;;;14.47;;
14078;SDS011;7115;50.150;8.568;2024-03-08T08:35:53;18.70;;;14.20;;
14078;SDS011;7115;50.150;8.568;2024-03-08T08:38:21;18.67;;;13.80;;
14078;SDS011;7115;50.150;8.568;2024-03-08T08:40:49;21.87;;;14.57;;
14078;SDS011;7115;50.150;8.568;2024-03-08T08:43:16;23.70;;;14.90;;
14078;SDS011;7115;50.150;8.568;2024-03-08T08:45:44;20.43;;;14.50;;
14078;SDS011;7115;50.150;8.568;2024-03-08T08:48:13;20.13;;;13.77;;
14078;SDS011;7115;50.150;8.568;2024-03-08T08:50:40;17.57;;;12.73;;
14078;SDS011;7115;50.150;8.568;2024-03-08T08:53:07;18.47;;;14.43;;
14078;SDS011;7115;50.150;8.568;2024-03-08T08:55:36;19.07;;;14.37;;
14078;SDS011;7115;50.150;8.568;2024-03-08T08:58:03;19.70;;;13.80;;
14078;SDS011;7115;50.150;8.568;2024-03-08T09:00:30;20.93;;;14.53;;
14078;SDS011;7115;50.150;8.568;2024-03-08T09:02:59;20.20;;;13.60;;
14078;SDS011;7115;50.150;8.568;2024-03-08T09:05:26;19.30;;;13.50;;
14078;SDS011;7115;50.150;8.568;2024-03-08T09:07:53;25.40;;;16.97;;
14078;SDS011;7115;50.150;8.568;2024-03-08T09:10:20;24.30;;;17.63;;
14078;SDS011;7115;50.150;8.568;2024-03-08T09:12:49;18.10;;;13.43;;
14078;SDS011;7115;50.150;8.568;2024-03-08T09:15:16;17.10;;;13.20;;
14078;SDS011;7115;50.150;8.568;2024-03-08T09:17:47;22.53;;;13.97;;
14078;SDS011;7115;50.150;8.568;2024-03-08T09:20:15;19.63;;;13.47;;
14078;SDS011;7115;50.150;8.568;2024-03-08T09:22:43;18.50;;;13.07;;
14078;SDS011;7115;50.150;8.568;2024-03-08T09:25:10;19.73;;;13.67;;
14078;SDS011;7115;50.150;8.568;2024-03-08T09:27:38;18.43;;;13.03;;
14078;SDS011;7115;50.150;8.568;2024-03-08T09:30:07;18.27;;;13.43;;
14078;SDS011;7115;50.150;8.568;2024-03-08T09:32:35;19.77;;;13.07;;
14078;SDS011;7115;50.150;8.568;2024-03-08T09:35:04;17.50;;;12.40;;
14078;SDS011;7115;50.150;8.568;2024-03-08T09:37:34;21.73;;;12.73;;
14078;SDS011;7115;50.150;8.568;2024-03-08T09:40:02;16.93;;;12.13;;
14078;SDS011;7115;50.150;8.568;2024-03-08T09:42:36;17.27;;;12.97;;
14078;SDS011;7115;50.150;8.568;2024-03-08T09:45:04;17.00;;;12.30;;
14078;SDS011;7115;50.150;8.568;2024-03-08T09:47:42;19.23;;;13.07;;
14078;SDS011;7115;50.150;8.568;2024-03-08T09:50:10;19.20;;;13.10;;
14078;SDS011;7115;50.150;8.568;2024-03-08T09:52:39;17.17;;;12.17;;
14078;SDS011;7115;50.150;8.568;2024-03-08T09:55:07;18.30;;;13.17;;
14078;SDS011;7115;50.150;8.568;2024-03-08T09:57:37;17.87;;;12.73;;
14078;SDS011;7115;50.150;8.568;2024-03-08T10:00:06;15.23;;;11.30;;
14078;SDS011;7115;50.150;8.568;2024-03-08T10:02:52;16.33;;;11.33;;
14078;SDS011;7115;50.150;8.568;2024-03-08T10:05:20;16.67;;;12.30;;
14078;SDS011;7115;50.150;8.568;2024-03-08T10:07:49;18.87;;;12.10;;
14078;SDS011;7115;50.150;8.568;2024-03-08T10:10:16;18.40;;;12.23;;
14078;SDS011;7115;50.150;8.568;2024-03-08T10:12:44;14.63;;;10.37;;
14078;SDS011;7115;50.150;8.568;2024-03-08T10:15:12;15.13;;;10.93;;
14078;SDS011;7115;50.150;8.568;2024-03-08T10:17:39;14.17;;;9.80;;
14078;SDS011;7115;50.150;8.568;2024-03-08T10:20:12;14.17;;;9.83;;
14078;SDS011;7115;50.150;8.568;2024-03-08T10:22:41;15.53;;;9.93;;
14078;SDS011;7115;50.150;8.568;2024-03-08T10:25:28;14.17;;;9.97;;
14078;SDS011;7115;50.150;8.568;2024-03-08T10:27:56;14.77;;;10.20;;
14078;SDS011;7115;50.150;8.568;2024-03-08T10:30:23;13.67;;;9.43;;
14078;SDS011;7115;50.150;8.568;2024-03-08T10:32:51;14.37;;;9.67;;
14078;SDS011;7115;50.150;8.568;2024-03-08T10:35:19;15.97;;;10.93;;
14078;SDS011;7115;50.150;8.568;2024-03-08T10:37:47;16.33;;;9.93;;
14078;SDS011;7115;50.150;8.568;2024-03-08T10:40:17;13.87;;;9.70;;
14078;SDS011;7115;50.150;8.568;2024-03-08T10:42:51;14.93;;;10.00;;
14078;SDS011;7115;50.150;8.568;2024-03-08T10:45:23;15.87;;;10.20;;
14078;SDS011;7115;50.150;8.568;2024-03-08T10:48:02;13.57;;;9.63;;
14078;SDS011;7115;50.150;8.568;2024-03-08T10:50:43;15.90;;;9.57;;
14078;SDS011;7115;50.150;8.568;2024-03-08T10:53:17;12.40;;;9.37;;
14078;SDS011;7115;50.150;8.568;2024-03-08T10:55:44;14.43;;;9.53;;
14078;SDS011;7115;50.150;8.568;2024-03-08T10:58:12;13.83;;;9.63;;
14078;SDS011;7115;50.150;8.568;2024-03-08T11:00:40;13.10;;;8.80;;
14078;SDS011;7115;50.150;8.568;2024-03-08T11:03:07;13.27;;;9.43;;
14078;SDS011;7115;50.150;8.568;2024-03-08T11:06:14;13.00;;;9.33;;
14078;SDS011;7115;50.150;8.568;2024-03-08T11:08:43;14.77;;;9.03;;
14078;SDS011;7115;50.150;8.568;2024-03-08T11:11:25;13.73;;;9.10;;
14078;SDS011;7115;50.150;8.568;2024-03-08T11:14:01;11.70;;;8.77;;
14078;SDS011;7115;50.150;8.568;2024-03-08T11:16:39;14.13;;;9.63;;
14078;SDS011;7115;50.150;8.568;2024-03-08T11:19:25;14.13;;;8.97;;
14078;SDS011;7115;50.150;8.568;2024-03-08T11:22:00;13.53;;;10.13;;
14078;SDS011;7115;50.150;8.568;2024-03-08T11:24:28;15.43;;;9.50;;
14078;SDS011;7115;50.150;8.568;2024-03-08T11:27:04;14.80;;;9.23;;
14078;SDS011;7115;50.150;8.568;2024-03-08T11:29:33;13.67;;;8.90;;
14078;SDS011;7115;50.150;8.568;2024-03-08T11:32:09;13.63;;;9.50;;
14078;SDS011;7115;50.150;8.568;2024-03-08T11:34:37;12.23;;;8.70;;
14078;SDS011;7115;50.150;8.568;2024-03-08T11:37:09;11.13;;;8.23;;
14078;SDS011;7115;50.150;8.568;2024-03-08T11:39:39;13.37;;;9.13;;
14078;SDS011;7115;50.150;8.568;2024-03-08T11:42:06;13.77;;;9.07;;
14078;SDS011;7115;50.150;8.568;2024-03-08T11:44:33;13.73;;;9.00;;
14078;SDS011;7115;50.150;8.568;2024-03-08T11:47:01;14.07;;;9.40;;
14078;SDS011;7115;50.150;8.568;2024-03-08T11:49:28;13.03;;;9.20;;
14078;SDS011;7115;50.150;8.568;2024-03-08T11:51:57;12.27;;;8.73;;
14078;SDS011;7115;50.150;8.568;2024-03-08T11:54:25;18.43;;;8.87;;
14078;SDS011;7115;50.150;8.568;2024-03-08T11:56:52;14.47;;;8.93;;
14078;SDS011;7115;50.150;8.568;2024-03-08T11:59:21;12.40;;;8.87;;
14078;SDS011;7115;50.150;8.568;2024-03-08T12:02:01;15.23;;;9.70;;
14078;SDS011;7115;50.150;8.568;2024-03-08T12:04:29;15.53;;;9.80;;
14078;SDS011;7115;50.150;8.568;2024-03-08T12:06:59;16.57;;;9.60;;
14078;SDS011;7115;50.150;8.568;2024-03-08T12:09:36;15.87;;;10.70;;
14078;SDS011;7115;50.150;8.568;2024-03-08T12:12:03;14.20;;;9.40;;
14078;SDS011;7115;50.150;8.568;2024-03-08T12:14:33;18.97;;;11.03;;
14078;SDS011;7115;50.150;8.568;2024-03-08T12:17:01;16.30;;;10.57;;
14078;SDS011;7115;50.150;8.568;2024-03-08T12:19:28;14.80;;;10.00;;
14078;SDS011;7115;50.150;8.568;2024-03-08T12:21:55;15.37;;;9.77;;
14078;SDS011;7115;50.150;8.568;2024-03-08T12:24:22;20.30;;;10.60;;
14078;SDS011;7115;50.150;8.568;2024-03-08T12:26:51;17.77;;;10.07;;
14078;SDS011;7115;50.150;8.568;2024-03-08T12:29:19;17.33;;;10.10;;
14078;SDS011;7115;50.150;8.568;2024-03-08T12:31:50;21.10;;;10.80;;
14078;SDS011;7115;50.150;8.568;2024-03-08T12:34:19;20.13;;;11.03;;
14078;SDS011;7115;50.150;8.568;2024-03-08T12:36:46;18.23;;;9.30;;
14078;SDS011;7115;50.150;8.568;2024-03-08T12:39:15;13.83;;;9.23;;
14078;SDS011;7115;50.150;8.568;2024-03-08T12:41:44;14.87;;;9.53;;
14078;SDS011;7115;50.150;8.568;2024-03-08T12:44:12;15.00;;;9.57;;
14078;SDS011;7115;50.150;8.568;2024-03-08T12:46:39;15.17;;;10.03;;
14078;SDS011;7115;50.150;8.568;2024-03-08T12:49:07;18.43;;;9.77;;
14078;SDS011;7115;50.150;8.568;2024-03-08T12:51:35;17.83;;;10.83;;
14078;SDS011;7115;50.150;8.568;2024-03-08T12:54:03;17.50;;;9.63;;
14078;SDS011;7115;50.150;8.568;2024-03-08T12:56:33;18.23;;;10.30;;
14078;SDS011;7115;50.150;8.568;2024-03-08T12:59:01;14.73;;;9.60;;
14078;SDS011;7115;50.150;8.568;2024-03-08T13:01:30;13.73;;;9.07;;
14078;SDS011;7115;50.150;8.568;2024-03-08T13:03:58;18.33;;;9.83;;
14078;SDS011;7115;50.150;8.568;2024-03-08T13:06:28;15.40;;;10.13;;
14078;SDS011;7115;50.150;8.568;2024-03-08T13:08:57;15.53;;;10.63;;
14078;SDS011;7115;50.150;8.568;2024-03-08T13:11:24;16.60;;;10.37;;
14078;SDS011;7115;50.150;8.568;2024-03-08T13:13:52;18.37;;;10.57;;
14078;SDS011;7115;50.150;8.568;2024-03-08T13:16:19;17.20;;;10.73;;
14078;SDS011;7115;50.150;8.568;2024-03-08T13:18:47;18.33;;;9.63;;
14078;SDS011;7115;50.150;8.568;2024-03-08T13:21:19;15.67;;;10.57;;
14078;SDS011;7115;50.150;8.568;2024-03-08T13:23:50;17.50;;;10.37;;
14078;SDS011;7115;50.150;8.568;2024-03-08T13:26:19;21.40;;;9.93;;
14078;SDS011;7115;50.150;8.568;2024-03-08T13:28:46;14.70;;;10.10;;
14078;SDS011;7115;50.150;8.568;2024-03-08T13:31:20;17.37;;;9.57;;
14078;SDS011;7115;50.150;8.568;2024-03-08T13:33:49;15.97;;;10.13;;
14078;SDS011;7115;50.150;8.568;2024-03-08T13:36:18;14.57;;;9.17;;
14078;SDS011;7115;50.150;8.568;2024-03-08T13:38:47;15.60;;;10.27;;
14078;SDS011;7115;50.150;8.568;2024-03-08T13:41:15;15.70;;;9.97;;
14078;SDS011;7115;50.150;8.568;2024-03-08T13:43:44;17.17;;;10.13;;
14078;SDS011;7115;50.150;8.568;2024-03-08T13:46:16;19.00;;;11.13;;
14078;SDS011;7115;50.150;8.568;2024-03-08T13:48:43;17.70;;;10.53;;
14078;SDS011;7115;50.150;8.568;2024-03-08T13:51:12;16.90;;;10.97;;
14078;SDS011;7115;50.150;8.568;2024-03-08T13:53:42;17.37;;;10.60;;
14078;SDS011;7115;50.150;8.568;2024-03-08T13:56:08;19.23;;;10.30;;
14078;SDS011;7115;50.150;8.568;2024-03-08T13:58:37;16.43;;;10.37;;
14078;SDS011;7115;50.150;8.568;2024-03-08T14:01:07;17.63;;;10.73;;
14078;SDS011;7115;50.150;8.568;2024-03-08T14:03:38;17.03;;;10.33;;
14078;SDS011;7115;50.150;8.568;2024-03-08T14:06:08;15.53;;;10.00;;
14078;SDS011;7115;50.150;8.568;2024-03-08T14:08:37;21.50;;;10.10;;
14078;SDS011;7115;50.150;8.568;2024-03-08T14:11:04;17.60;;;11.30;;
14078;SDS011;7115;50.150;8.568;2024-03-08T14:13:41;18.77;;;11.43;;
14078;SDS011;7115;50.150;8.568;2024-03-08T14:16:10;20.40;;;11.53;;
14078;SDS011;7115;50.150;8.568;2024-03-08T14:18:37;18.87;;;11.40;;
14078;SDS011;7115;50.150;8.568;2024-03-08T14:21:04;18.13;;;10.63;;
14078;SDS011;7115;50.150;8.568;2024-03-08T14:23:34;17.73;;;10.40;;
14078;SDS011;7115;50.150;8.568;2024-03-08T14:26:03;18.03;;;10.90;;
14078;SDS011;7115;50.150;8.568;2024-03-08T14:28:31;17.23;;;10.70;;
14078;SDS011;7115;50.150;8.568;2024-03-08T14:30:58;17.57;;;10.43;;
14078;SDS011;7115;50.150;8.568;2024-03-08T14:33:32;17.07;;;11.00;;
14078;SDS011;7115;50.150;8.568;2024-03-08T14:36:00;18.90;;;11.93;;
14078;SDS011;7115;50.150;8.568;2024-03-08T14:38:28;16.03;;;10.77;;
14078;SDS011;7115;50.150;8.568;2024-03-08T14:40:56;16.13;;;9.77;;
14078;SDS011;7115;50.150;8.568;2024-03-08T14:43:23;15.23;;;10.13;;
14078;SDS011;7115;50.150;8.568;2024-03-08T14:45:50;14.67;;;10.10;;
14078;SDS011;7115;50.150;8.568;2024-03-08T14:48:18;16.13;;;10.30;;